Pine City, MN (55063)

6:03 PM CDT on September 02, 2015 (GMT -0500)
Rush City Regional | | Change Station
CLOSE
Current Station
Airport
Location: Rush City,
Elevation: 922 ft
Nearby Weather Stations

Elev 922 ft 45.70 °N, 92.95 °W | Updated 8 minutes ago

Overcast
Overcast
73 °F
Feels Like 73 °F
N
0
Wind Variable Wind from North

Today
High -- | Low -- °F
--% Chance of Precip.
Yesterday
High -- | Low -- °F
Precip. -- in
6:33 AM 7:48 PM
Waning Gibbous, 76% visible
Pressure 29.91 in
Visibility 10.0 miles
Clouds Overcast 1800 ft
Dew Point 68 °F
Humidity 83%
Rainfall 0.31 in
Snow Depth Not available.
UV 0 out of 12
Pollen 10.00 out of 12
Air Quality Not available.
Flu Activity Not available.
METAR KROS 022255Z AUTO 00000KT 10SM OVC018 23/20 A2991 RMK AO2 T02280197
Pressure 29.91 in
Visibility 10.0 miles
Clouds Overcast 1800 ft
Dew Point 68 °F
Humidity 83%
Rainfall 0.31 in
Snow Depth Not available.
UV 0 out of 12
Pollen 10.00 out of 12
Air Quality Not available.
Flu Activity Not available.
METAR KROS 022255Z AUTO 00000KT 10SM OVC018 23/20 A2991 RMK AO2 T02280197

10-Day Weather Forecast

×

Almanac

Astronomy

Sep. 02, 2015 Rise Set
Actual Time
Civil Twilight
Nautical Twilight
Astronomical Twilight
Moon
Length of Visible Light
Length of Day
Tomorrow will be .
, % of the Moon is Illuminated

Today's Extremes

State Highs State Lows

Community

WunderPhotos

Upload Photos

1,851,821 photos uploaded!

WunderBlogs® & News

Nearby

Air Quality

  Air Quality AQ Index Pollutant
Not available.

Snow Depth

Station Depth Elevation

Earthquake Activity

City Distance Mag. Time & Date
Minimum magnitude displayed is 2.5.

Coastal Water Temperatures

Place Temperature

Stations

Nearby Weather Stations

Station Location Temp. Windchill Dew Point Humidity Wind Precip. Elev Updated Type